createdAt,value
2018-05-21T00:00:51.362Z,4.00
2018-05-21T00:01:53.908Z,4.50
2018-05-21T00:02:56.422Z,4.35
2018-05-21T00:03:58.938Z,4.85
2018-05-21T00:05:01.519Z,5.07
2018-05-21T00:06:04.048Z,5.80
2018-05-21T00:07:07.364Z,5.65
2018-05-21T00:08:09.881Z,4.35
2018-05-21T00:09:12.413Z,4.78
2018-05-21T00:10:14.964Z,5.00
2018-05-21T00:11:17.480Z,4.80
2018-05-21T00:12:20.000Z,4.62
2018-05-21T00:13:22.540Z,3.90
2018-05-21T00:14:25.085Z,4.70
2018-05-21T00:15:27.657Z,4.28
2018-05-21T00:16:30.940Z,3.58
2018-05-21T00:17:33.478Z,4.28
2018-05-21T00:18:36.084Z,3.40
2018-05-21T00:19:38.556Z,3.95
2018-05-21T00:20:41.872Z,3.65
2018-05-21T00:21:44.422Z,4.05
2018-05-21T00:22:46.974Z,3.78
2018-05-21T00:23:50.261Z,3.72
2018-05-21T00:24:52.783Z,3.92
2018-05-21T00:25:55.296Z,4.20
2018-05-21T00:26:57.822Z,4.28
2018-05-21T00:28:00.377Z,4.05
2018-05-21T00:29:02.896Z,3.22
2018-05-21T00:30:05.454Z,3.62
2018-05-21T00:31:08.735Z,3.85
2018-05-21T00:32:12.024Z,3.28
2018-05-21T00:33:14.551Z,4.05
2018-05-21T00:34:17.077Z,3.65
2018-05-21T00:35:19.639Z,3.58
2018-05-21T00:36:22.156Z,3.58
2018-05-21T00:37:24.676Z,3.50
2018-05-21T00:38:27.195Z,4.10
2018-05-21T00:39:29.712Z,3.50
2018-05-21T00:40:32.272Z,3.80
2018-05-21T00:41:34.795Z,3.83
2018-05-21T00:42:37.316Z,3.97
2018-05-21T00:43:39.841Z,4.00
2018-05-21T00:44:43.130Z,4.25
2018-05-21T00:45:46.455Z,4.05
2018-05-21T00:46:48.973Z,4.22
2018-05-21T00:47:52.257Z,3.50
2018-05-21T00:48:55.547Z,4.28
2018-05-21T00:49:58.073Z,3.60
2018-05-21T00:51:00.631Z,4.45
2018-05-21T00:52:03.196Z,3.92
2018-05-21T00:53:05.723Z,4.20
2018-05-21T00:54:08.260Z,4.60
2018-05-21T00:55:22.640Z,4.07
2018-05-21T00:56:25.164Z,4.15
2018-05-21T00:57:27.719Z,4.15
2018-05-21T00:58:30.248Z,4.00
2018-05-21T00:59:32.777Z,4.10
2018-05-21T01:00:36.108Z,4.20
2018-05-21T01:01:38.639Z,5.37
2018-05-21T01:02:41.167Z,3.58
2018-05-21T01:03:43.784Z,4.18
2018-05-21T01:04:46.306Z,3.90
2018-05-21T01:05:48.878Z,3.65
2018-05-21T01:06:51.402Z,3.90
2018-05-21T01:07:53.914Z,3.85
2018-05-21T01:08:56.436Z,4.68
2018-05-21T01:09:58.957Z,4.20
2018-05-21T01:11:02.284Z,4.40
2018-05-21T01:12:04.807Z,3.50
2018-05-21T01:13:08.097Z,4.45
2018-05-21T01:14:11.380Z,5.22
2018-05-21T01:15:14.670Z,4.28
2018-05-21T01:16:17.989Z,4.93
2018-05-21T01:17:20.513Z,5.00
2018-05-21T01:18:23.836Z,5.28
2018-05-21T01:19:26.358Z,4.82
2018-05-21T01:20:29.655Z,5.32
2018-05-21T01:21:32.180Z,5.10
2018-05-21T01:22:34.693Z,5.20
2018-05-21T01:23:37.252Z,5.05
2018-05-21T01:24:40.543Z,4.80
2018-05-21T01:25:43.068Z,4.55
2018-05-21T01:26:45.600Z,4.65
2018-05-21T01:27:48.258Z,5.30
2018-05-21T01:28:50.829Z,5.40
2018-05-21T01:29:53.347Z,4.72
2018-05-21T01:30:55.862Z,5.10
2018-05-21T01:31:58.375Z,4.65
2018-05-21T01:33:00.892Z,4.47
2018-05-21T01:34:03.457Z,6.03
2018-05-21T01:35:05.980Z,4.75
2018-05-21T01:36:09.277Z,5.70
2018-05-21T01:37:12.561Z,4.78
2018-05-21T01:38:15.896Z,4.85
2018-05-21T01:39:18.427Z,5.85
2018-05-21T01:40:20.964Z,4.68
2018-05-21T01:41:24.252Z,4.80
2018-05-21T01:42:27.541Z,5.25
2018-05-21T01:43:30.904Z,4.70
2018-05-21T01:44:33.477Z,4.93
2018-05-21T01:45:35.991Z,5.20
2018-05-21T01:46:38.517Z,5.32
2018-05-21T01:47:41.803Z,5.37
2018-05-21T01:48:45.097Z,5.35
2018-05-21T01:49:48.430Z,5.05
2018-05-21T01:50:50.992Z,5.57
2018-05-21T01:51:53.523Z,5.43
2018-05-21T01:52:56.153Z,5.40
2018-05-21T01:53:58.684Z,5.57
2018-05-21T01:55:01.247Z,5.82
2018-05-21T01:56:03.805Z,4.93
2018-05-21T01:57:06.324Z,5.72
2018-05-21T01:58:08.841Z,5.87
2018-05-21T01:59:11.353Z,5.60
2018-05-21T02:00:13.919Z,5.00
2018-05-21T02:01:16.483Z,5.53
2018-05-21T02:02:19.059Z,5.50
2018-05-21T02:03:21.585Z,5.43
2018-05-21T02:04:24.124Z,5.55
2018-05-21T02:05:26.657Z,5.75
2018-05-21T02:06:29.184Z,5.50
2018-05-21T02:07:32.506Z,5.30
2018-05-21T02:08:35.077Z,5.68
2018-05-21T02:09:37.596Z,5.15
2018-05-21T02:10:40.113Z,5.00
2018-05-21T02:11:43.403Z,5.28
2018-05-21T02:12:46.935Z,5.30
2018-05-21T02:13:49.461Z,4.97
2018-05-21T02:14:52.750Z,5.78
2018-05-21T02:15:56.037Z,5.25
2018-05-21T02:16:59.364Z,5.75
2018-05-21T02:18:01.890Z,5.35
2018-05-21T02:19:05.174Z,4.95
2018-05-21T02:20:07.764Z,5.15
2018-05-21T02:21:10.289Z,5.12
2018-05-21T02:22:13.571Z,5.53
2018-05-21T02:23:16.123Z,6.07
2018-05-21T02:24:18.676Z,5.53
2018-05-21T02:25:21.275Z,5.18
2018-05-21T02:26:24.563Z,6.10
2018-05-21T02:27:27.981Z,4.78
2018-05-21T02:28:31.611Z,5.30
2018-05-21T02:29:34.140Z,5.32
2018-05-21T02:30:36.685Z,5.62
2018-05-21T02:31:39.210Z,5.18
2018-05-21T02:32:41.745Z,5.57
2018-05-21T02:33:44.298Z,5.20
2018-05-21T02:34:46.857Z,5.10
2018-05-21T02:35:49.379Z,5.80
2018-05-21T02:36:51.911Z,6.05
2018-05-21T02:37:54.432Z,5.43
2018-05-21T02:38:57.761Z,5.35
2018-05-21T02:40:00.283Z,6.40
2018-05-21T02:41:03.571Z,6.35
2018-05-21T02:42:06.861Z,5.90
2018-05-21T02:43:10.195Z,6.10
2018-05-21T02:44:12.729Z,6.28
2018-05-21T02:45:15.278Z,5.62
2018-05-21T02:46:18.568Z,6.20
2018-05-21T02:47:21.091Z,5.43
2018-05-21T02:48:23.652Z,6.00
2018-05-21T02:49:26.738Z,6.03
2018-05-21T02:50:29.260Z,5.40
2018-05-21T02:51:31.782Z,5.85
2018-05-21T02:52:34.305Z,6.15
2018-05-21T02:53:36.868Z,6.32
2018-05-21T02:54:39.405Z,6.05
2018-05-21T02:55:41.969Z,5.75
2018-05-21T02:56:45.264Z,6.85
2018-05-21T02:57:47.832Z,6.65
2018-05-21T02:58:51.237Z,6.47
2018-05-21T02:59:53.761Z,6.22
2018-05-21T03:00:57.057Z,5.95
2018-05-21T03:01:59.593Z,6.35
2018-05-21T03:03:02.121Z,6.30
2018-05-21T03:04:04.687Z,5.90
2018-05-21T03:05:07.204Z,6.57
2018-05-21T03:06:09.726Z,7.00
2018-05-21T03:07:12.256Z,6.65
2018-05-21T03:08:15.538Z,6.68
2018-05-21T03:09:18.120Z,6.50
2018-05-21T03:11:29.715Z,7.07
2018-05-21T03:12:32.231Z,8.15
2018-05-21T03:13:34.794Z,6.95
2018-05-21T03:14:37.313Z,7.28
2018-05-21T03:15:39.831Z,7.00
2018-05-21T03:16:42.391Z,6.95
2018-05-21T03:17:44.921Z,6.25
2018-05-21T03:18:47.444Z,6.47
2018-05-21T03:19:50.745Z,6.82
2018-05-21T03:20:53.277Z,6.87
2018-05-21T03:21:55.831Z,6.90
2018-05-21T03:22:58.381Z,6.80
2018-05-21T03:24:00.898Z,7.00
2018-05-21T03:25:04.184Z,6.70
2018-05-21T03:26:07.480Z,6.50
2018-05-21T03:27:10.045Z,7.10
2018-05-21T03:28:12.577Z,6.70
2018-05-21T03:29:15.111Z,7.00
2018-05-21T03:30:17.635Z,7.35
2018-05-21T03:31:20.956Z,6.40
2018-05-21T03:32:23.514Z,6.65
2018-05-21T03:33:26.048Z,7.32
2018-05-21T03:34:29.335Z,6.65
2018-05-21T03:35:32.610Z,6.72
2018-05-21T03:36:35.998Z,7.20
2018-05-21T03:37:38.500Z,7.05
2018-05-21T03:38:41.020Z,7.50
2018-05-21T03:39:44.316Z,7.97
2018-05-21T03:40:47.608Z,6.72
2018-05-21T03:41:50.134Z,7.07
2018-05-21T03:42:52.723Z,6.37
2018-05-21T03:43:56.012Z,6.37
2018-05-21T03:44:59.311Z,7.35
2018-05-21T03:46:01.835Z,7.62
2018-05-21T03:47:04.352Z,7.40
2018-05-21T03:48:06.907Z,7.10
2018-05-21T03:49:09.463Z,7.40
2018-05-21T03:50:12.747Z,7.07
2018-05-21T03:51:16.040Z,6.20
2018-05-21T03:52:18.599Z,7.95
2018-05-21T03:53:21.890Z,7.70
2018-05-21T03:54:24.447Z,7.03
2018-05-21T03:55:27.743Z,7.30
2018-05-21T03:56:30.269Z,7.22
2018-05-21T03:57:32.800Z,7.40
2018-05-21T03:58:47.234Z,7.12
2018-05-21T04:01:45.897Z,6.57
2018-05-21T04:03:01.112Z,6.68
2018-05-21T04:04:03.634Z,6.85
2018-05-21T04:05:06.155Z,7.10
2018-05-21T04:06:08.684Z,6.20
2018-05-21T04:07:11.299Z,6.65
2018-05-21T04:08:13.895Z,6.78
2018-05-21T04:09:16.364Z,6.65
2018-05-21T04:10:19.643Z,7.50
2018-05-21T04:11:22.935Z,6.32
2018-05-21T04:12:26.351Z,6.97
2018-05-21T04:13:28.884Z,6.05
2018-05-21T04:14:32.175Z,7.12
2018-05-21T04:15:34.712Z,5.95
2018-05-21T04:16:37.255Z,6.00
2018-05-21T04:17:39.811Z,6.40
2018-05-21T04:18:42.366Z,6.37
2018-05-21T04:19:44.924Z,6.20
2018-05-21T04:20:47.451Z,6.57
2018-05-21T04:21:50.741Z,5.60
2018-05-21T04:22:54.033Z,6.95
2018-05-21T04:23:57.328Z,6.12
2018-05-21T04:24:59.881Z,5.90
2018-05-21T04:26:03.168Z,6.25
2018-05-21T04:27:06.511Z,5.82
2018-05-21T04:28:09.051Z,5.70
2018-05-21T04:29:11.585Z,5.78
2018-05-21T04:30:14.873Z,6.10
2018-05-21T04:31:17.391Z,5.90
2018-05-21T04:32:19.960Z,6.10
2018-05-21T04:33:22.475Z,5.60
2018-05-21T04:34:25.027Z,5.95
2018-05-21T04:35:28.312Z,5.90
2018-05-21T04:36:31.602Z,5.43
2018-05-21T04:37:34.121Z,5.78
2018-05-21T04:38:36.654Z,6.25
2018-05-21T04:39:39.211Z,5.80
2018-05-21T04:40:41.733Z,5.87
2018-05-21T04:41:44.276Z,5.72
2018-05-21T04:42:46.801Z,5.93
2018-05-21T04:43:49.327Z,5.30
2018-05-21T04:44:51.891Z,5.62
2018-05-21T04:45:54.446Z,5.80
2018-05-21T04:46:56.974Z,5.72
2018-05-21T04:47:59.501Z,5.60
2018-05-21T04:49:02.027Z,5.50
2018-05-21T04:50:04.593Z,5.90
2018-05-21T04:51:07.113Z,5.45
2018-05-21T04:52:10.409Z,6.05
2018-05-21T04:53:13.727Z,5.15
2018-05-21T04:54:16.250Z,5.82
2018-05-21T04:55:19.580Z,5.40
2018-05-21T04:56:22.092Z,5.43
2018-05-21T04:57:25.428Z,5.50
2018-05-21T04:58:27.964Z,5.62
2018-05-21T04:59:31.257Z,6.10
2018-05-21T05:00:33.774Z,5.95
2018-05-21T05:01:36.297Z,5.10
2018-05-21T05:02:38.862Z,6.03
2018-05-21T05:03:41.387Z,4.80
2018-05-21T05:04:43.916Z,5.32
2018-05-21T05:05:46.435Z,5.60
2018-05-21T05:06:49.784Z,5.30
2018-05-21T05:07:52.312Z,5.32
2018-05-21T05:08:54.878Z,5.45
2018-05-21T05:09:57.401Z,5.70
2018-05-21T05:10:59.924Z,6.32
2018-05-21T05:12:02.459Z,6.25
2018-05-21T05:13:05.798Z,5.72
2018-05-21T05:14:08.335Z,5.60
2018-05-21T05:15:10.877Z,5.40
2018-05-21T05:16:14.161Z,5.80
2018-05-21T05:17:16.701Z,5.35
2018-05-21T05:18:19.272Z,5.80
2018-05-21T05:19:22.558Z,6.03
2018-05-21T05:20:25.082Z,6.30
2018-05-21T05:21:27.603Z,5.12
2018-05-21T05:22:30.890Z,6.30
2018-05-21T05:23:34.216Z,6.10
2018-05-21T05:24:36.735Z,5.20
2018-05-21T05:25:40.031Z,5.90
2018-05-21T05:26:42.633Z,5.40
2018-05-21T05:27:45.101Z,6.00
2018-05-21T05:28:47.660Z,6.20
2018-05-21T05:29:50.221Z,6.00
2018-05-21T05:30:52.745Z,6.10
2018-05-21T05:31:56.029Z,5.62
2018-05-21T05:32:59.324Z,5.93
2018-05-21T05:34:01.879Z,5.70
2018-05-21T05:35:05.179Z,6.10
2018-05-21T05:36:07.788Z,5.85
2018-05-21T05:37:10.285Z,6.05
2018-05-21T05:38:12.815Z,6.15
2018-05-21T05:39:15.374Z,5.95
2018-05-21T05:40:17.895Z,5.60
2018-05-21T05:41:21.192Z,5.45
2018-05-21T05:42:23.719Z,5.78
2018-05-21T05:43:26.244Z,5.40
2018-05-21T05:44:28.821Z,5.72
2018-05-21T05:45:31.343Z,4.85
2018-05-21T05:46:34.627Z,5.60
2018-05-21T05:47:37.928Z,5.43
2018-05-21T05:48:40.447Z,5.30
2018-05-21T05:49:43.012Z,5.60
2018-05-21T05:50:45.583Z,5.35
2018-05-21T05:51:48.133Z,6.10
2018-05-21T05:52:50.660Z,5.90
2018-05-21T05:53:53.184Z,4.95
2018-05-21T05:54:55.719Z,5.28
2018-05-21T05:55:58.278Z,5.65
2018-05-21T05:57:00.796Z,6.15
2018-05-21T05:58:03.354Z,5.70
2018-05-21T05:59:05.880Z,6.40
2018-05-21T06:00:08.416Z,5.50
2018-05-21T06:01:11.750Z,5.82
2018-05-21T06:02:14.277Z,5.45
2018-05-21T06:03:16.800Z,5.28
2018-05-21T06:04:19.338Z,5.35
2018-05-21T06:05:22.632Z,5.68
2018-05-21T06:06:25.188Z,5.90
2018-05-21T06:07:27.722Z,5.97
2018-05-21T06:08:30.249Z,5.10
2018-05-21T06:09:32.775Z,5.85
2018-05-21T06:10:35.322Z,5.35
2018-05-21T06:11:37.896Z,5.72
2018-05-21T06:12:40.417Z,6.22
2018-05-21T06:13:42.938Z,5.22
2018-05-21T06:14:45.482Z,5.40
2018-05-21T06:15:48.008Z,6.00
2018-05-21T06:16:50.592Z,5.15
2018-05-21T06:17:53.108Z,5.82
2018-05-21T06:18:55.623Z,5.53
2018-05-21T06:19:58.138Z,5.07
2018-05-21T06:21:00.662Z,6.57
2018-05-21T06:22:03.977Z,5.30
2018-05-21T06:23:06.519Z,6.32
2018-05-21T06:24:09.806Z,5.30
2018-05-21T06:25:13.106Z,5.35
2018-05-21T06:26:15.636Z,5.20
2018-05-21T06:27:18.213Z,5.90
2018-05-21T06:28:21.502Z,5.53
2018-05-21T06:29:24.791Z,4.95
2018-05-21T06:30:28.129Z,5.12
2018-05-21T06:31:30.690Z,5.32
2018-05-21T06:32:33.211Z,5.43
2018-05-21T06:33:36.488Z,5.05
2018-05-21T06:34:39.837Z,6.00
2018-05-21T06:35:42.334Z,5.05
2018-05-21T06:36:45.665Z,5.55
2018-05-21T06:37:48.192Z,5.25
2018-05-21T06:38:51.491Z,5.40
2018-05-21T06:39:54.021Z,5.57
2018-05-21T06:40:56.557Z,5.30
2018-05-21T06:41:59.136Z,5.45
2018-05-21T06:43:01.666Z,5.03
2018-05-21T06:44:04.197Z,5.37
2018-05-21T06:45:07.494Z,4.72
2018-05-21T06:46:10.776Z,5.18
2018-05-21T06:47:14.100Z,5.00
2018-05-21T06:48:16.628Z,5.28
2018-05-21T06:49:19.910Z,4.80
2018-05-21T06:50:23.188Z,6.15
2018-05-21T06:51:26.512Z,5.10
2018-05-21T06:52:29.027Z,5.20
2018-05-21T06:53:31.547Z,5.75
2018-05-21T06:54:34.071Z,4.80
2018-05-21T06:55:37.363Z,5.07
2018-05-21T06:56:40.687Z,5.55
2018-05-21T06:57:43.204Z,4.85
2018-05-21T06:58:46.492Z,5.03
2018-05-21T06:59:49.844Z,4.80
2018-05-21T07:00:52.369Z,5.25
2018-05-21T07:01:54.916Z,5.50
2018-05-21T07:02:57.441Z,4.82
2018-05-21T07:03:59.961Z,5.15
2018-05-21T07:05:02.480Z,4.90
2018-05-21T07:06:05.040Z,5.37
2018-05-21T07:07:07.556Z,5.12
2018-05-21T07:08:10.076Z,4.75
2018-05-21T07:09:12.596Z,5.15
2018-05-21T07:10:15.128Z,4.60
2018-05-21T07:11:18.467Z,4.43
2018-05-21T07:12:21.768Z,5.37
2018-05-21T07:13:24.297Z,4.57
2018-05-21T07:14:26.815Z,5.30
2018-05-21T07:15:29.332Z,5.10
2018-05-21T07:16:31.891Z,4.28
2018-05-21T07:17:34.406Z,4.78
2018-05-21T07:18:36.931Z,4.60
2018-05-21T07:19:39.450Z,4.18
2018-05-21T07:20:41.967Z,4.50
2018-05-21T07:21:44.531Z,4.70
2018-05-21T07:22:47.049Z,4.03
2018-05-21T07:23:50.340Z,4.57
2018-05-21T07:24:53.640Z,4.25
2018-05-21T07:25:56.177Z,4.78
2018-05-21T07:26:58.735Z,5.00
2018-05-21T07:28:01.251Z,4.15
2018-05-21T07:29:03.763Z,5.07
2018-05-21T07:30:06.285Z,5.15
2018-05-21T07:31:08.811Z,4.90
2018-05-21T07:32:11.367Z,5.15
2018-05-21T07:33:13.886Z,4.57
2018-05-21T07:34:16.412Z,4.82
2018-05-21T07:35:18.945Z,4.62
2018-05-21T07:36:21.469Z,5.05
2018-05-21T07:37:24.035Z,4.82
2018-05-21T07:38:26.565Z,4.75
2018-05-21T07:39:29.082Z,4.68
2018-05-21T07:40:31.600Z,5.22
2018-05-21T07:41:34.131Z,4.95
2018-05-21T07:42:36.692Z,5.10
2018-05-21T07:43:39.217Z,4.55
2018-05-21T07:44:42.555Z,4.80
2018-05-21T07:45:45.093Z,4.32
2018-05-21T07:46:47.616Z,4.97
2018-05-21T07:47:50.198Z,4.70
2018-05-21T07:48:52.745Z,4.35
2018-05-21T07:49:55.262Z,4.28
2018-05-21T07:50:57.784Z,4.90
2018-05-21T07:52:00.351Z,4.47
2018-05-21T07:53:02.887Z,5.03
2018-05-21T07:54:05.403Z,4.60
2018-05-21T07:55:08.707Z,5.12
2018-05-21T07:56:11.220Z,4.85
2018-05-21T07:57:13.739Z,4.62
2018-05-21T07:58:16.383Z,4.65
2018-05-21T07:59:18.871Z,4.43
2018-05-21T08:00:21.427Z,4.25
2018-05-21T08:01:23.952Z,4.60
2018-05-21T08:02:26.474Z,4.95
2018-05-21T08:03:28.984Z,4.10
2018-05-21T08:04:31.556Z,3.72
2018-05-21T08:05:34.095Z,3.97
2018-05-21T08:06:36.629Z,5.07
2018-05-21T08:07:39.163Z,4.78
2018-05-21T08:08:42.481Z,5.20
2018-05-21T08:09:45.067Z,4.60
2018-05-21T08:10:47.597Z,4.32
2018-05-21T08:11:50.117Z,4.80
2018-05-21T08:12:52.640Z,4.82
2018-05-21T08:13:55.170Z,4.32
2018-05-21T08:14:58.533Z,4.12
2018-05-21T08:16:01.061Z,4.20
2018-05-21T08:17:03.575Z,4.70
2018-05-21T08:18:06.100Z,5.00
2018-05-21T08:19:08.627Z,4.43
2018-05-21T08:20:11.955Z,4.45
2018-05-21T08:21:14.486Z,4.40
2018-05-21T08:22:17.864Z,4.60
2018-05-21T08:23:20.378Z,4.35
2018-05-21T08:24:23.668Z,4.95
2018-05-21T08:25:26.187Z,4.75
2018-05-21T08:26:29.492Z,4.70
2018-05-21T08:27:32.059Z,4.10
2018-05-21T08:28:34.579Z,4.18
2018-05-21T08:29:37.119Z,4.47
2018-05-21T08:30:39.656Z,3.83
2018-05-21T08:31:42.260Z,4.20
2018-05-21T08:32:44.886Z,4.68
2018-05-21T08:33:47.343Z,4.63
2018-05-21T08:34:49.871Z,4.70
2018-05-21T08:35:52.397Z,4.20
2018-05-21T08:36:54.955Z,4.32
2018-05-21T08:37:57.497Z,4.33
2018-05-21T08:39:00.828Z,4.30
2018-05-21T08:40:03.392Z,3.95
2018-05-21T08:41:05.923Z,4.27
2018-05-21T08:42:09.246Z,4.13
2018-05-21T08:43:11.788Z,4.50
2018-05-21T08:44:14.353Z,4.03
2018-05-21T08:45:16.907Z,5.30
2018-05-21T08:46:19.450Z,4.80
2018-05-21T08:47:22.016Z,3.90
2018-05-21T08:48:24.607Z,4.87
2018-05-21T08:49:27.711Z,4.80
2018-05-21T08:50:30.245Z,3.55
2018-05-21T08:51:33.537Z,4.60
2018-05-21T08:52:36.103Z,4.12
2018-05-21T08:53:38.631Z,3.70
2018-05-21T08:54:41.165Z,4.13
2018-05-21T08:55:44.463Z,4.37
2018-05-21T08:56:46.995Z,3.57
2018-05-21T08:57:49.548Z,4.00
2018-05-21T08:58:52.915Z,4.30
2018-05-21T08:59:55.375Z,3.50
2018-05-21T09:00:57.904Z,4.20
2018-05-21T09:02:00.459Z,4.20
2018-05-21T09:03:02.985Z,3.70
2018-05-21T09:04:05.511Z,4.00
2018-05-21T09:05:08.047Z,3.93
2018-05-21T09:06:10.568Z,3.77
2018-05-21T09:07:13.129Z,4.00
2018-05-21T09:08:15.657Z,3.70
2018-05-21T09:09:18.182Z,3.70
2018-05-21T09:10:21.486Z,3.50
2018-05-21T09:11:24.014Z,3.80
2018-05-21T09:12:28.166Z,3.67
2018-05-21T09:13:30.647Z,3.60
2018-05-21T09:14:33.167Z,4.23
2018-05-21T09:15:35.691Z,3.70
2018-05-21T09:16:38.272Z,3.90
2018-05-21T09:17:40.801Z,3.70
2018-05-21T09:18:43.320Z,3.73
2018-05-21T09:19:45.858Z,4.00
2018-05-21T09:20:48.376Z,3.60
2018-05-21T09:21:51.696Z,3.67
2018-05-21T09:22:54.220Z,3.77
2018-05-21T09:23:57.517Z,3.90
2018-05-21T09:25:00.039Z,3.20
2018-05-21T09:26:02.613Z,3.50
2018-05-21T09:27:05.136Z,3.50
2018-05-21T09:28:07.652Z,3.80
2018-05-21T09:29:10.171Z,4.10
2018-05-21T09:30:12.701Z,4.50
2018-05-21T09:31:16.067Z,3.57
2018-05-21T09:32:18.602Z,3.53
2018-05-21T09:33:21.163Z,3.70
2018-05-21T09:34:23.688Z,3.50
2018-05-21T09:35:26.988Z,3.13
2018-05-21T09:36:29.508Z,3.73
2018-05-21T09:37:32.040Z,3.90
2018-05-21T09:38:34.613Z,3.73
2018-05-21T09:39:37.137Z,4.17
2018-05-21T09:40:40.448Z,3.40
2018-05-21T09:41:42.990Z,3.90
2018-05-21T09:42:46.304Z,3.30
2018-05-21T09:43:48.821Z,4.40
2018-05-21T09:44:51.352Z,4.47
2018-05-21T09:45:53.877Z,4.17
2018-05-21T09:46:57.168Z,4.30
2018-05-21T09:47:59.723Z,4.00
2018-05-21T09:49:03.010Z,4.37
2018-05-21T09:50:05.537Z,3.50
2018-05-21T09:51:08.067Z,3.63
2018-05-21T09:52:10.614Z,5.23
2018-05-21T09:53:13.162Z,4.23
2018-05-21T09:54:16.457Z,4.23
2018-05-21T09:55:19.028Z,5.07
2018-05-21T09:56:22.320Z,4.03
2018-05-21T09:57:24.905Z,3.93
2018-05-21T09:58:28.214Z,3.70
2018-05-21T09:59:30.731Z,4.25
2018-05-21T10:00:34.019Z,4.33
2018-05-21T10:01:36.569Z,5.87
2018-05-21T10:02:39.892Z,5.50
2018-05-21T10:03:42.411Z,4.70
2018-05-21T10:04:45.704Z,3.90
2018-05-21T10:05:48.994Z,3.97
2018-05-21T10:06:51.597Z,3.70
2018-05-21T10:07:54.888Z,3.17
2018-05-21T10:08:57.407Z,3.67
2018-05-21T10:10:00.691Z,3.53
2018-05-21T10:11:03.976Z,5.10
2018-05-21T10:12:07.375Z,3.47
2018-05-21T10:13:09.864Z,3.50
2018-05-21T10:14:12.401Z,4.50
2018-05-21T10:15:14.927Z,3.63
2018-05-21T10:16:17.456Z,3.07
2018-05-21T10:17:19.992Z,3.50
2018-05-21T10:18:23.311Z,3.73
2018-05-21T10:19:26.002Z,3.50
2018-05-21T10:20:28.411Z,3.40
2018-05-21T10:21:30.938Z,3.80
2018-05-21T10:22:33.467Z,4.13
2018-05-21T10:23:36.006Z,3.10
2018-05-21T10:24:39.319Z,2.87
2018-05-21T10:25:41.839Z,3.60
2018-05-21T10:26:44.354Z,3.50
2018-05-21T10:27:46.875Z,3.47
2018-05-21T10:28:50.199Z,3.50
2018-05-21T10:29:52.726Z,3.83
2018-05-21T10:30:56.021Z,3.00
2018-05-21T10:31:59.302Z,3.10
2018-05-21T10:33:02.592Z,3.47
2018-05-21T10:34:05.171Z,3.50
2018-05-21T10:35:07.697Z,3.03
2018-05-21T10:36:10.228Z,3.47
2018-05-21T10:37:12.755Z,3.37
2018-05-21T10:38:15.291Z,3.03
2018-05-21T10:39:17.862Z,3.33
2018-05-21T10:40:20.426Z,3.00
2018-05-21T10:41:22.957Z,3.60
2018-05-21T10:42:25.479Z,3.17
2018-05-21T10:43:29.388Z,3.17
2018-05-21T10:44:33.256Z,2.83
2018-05-21T10:45:37.146Z,3.20
2018-05-21T10:46:41.020Z,3.50
2018-05-21T10:47:44.936Z,6.43
2018-05-21T10:48:48.813Z,3.47
2018-05-21T10:49:51.329Z,2.80
2018-05-21T10:50:54.624Z,3.83
2018-05-21T10:51:57.158Z,2.50
2018-05-21T10:53:00.512Z,3.20
2018-05-21T10:54:03.027Z,3.00
2018-05-21T10:55:06.312Z,3.60
2018-05-21T10:56:09.641Z,3.00
2018-05-21T10:57:12.172Z,3.07
2018-05-21T10:58:15.458Z,2.83
2018-05-21T10:59:18.745Z,2.83
2018-05-21T11:00:21.305Z,2.77
2018-05-21T11:01:24.632Z,2.60
2018-05-21T11:02:27.187Z,2.83
2018-05-21T11:03:29.731Z,3.67
2018-05-21T11:04:32.340Z,3.20
2018-05-21T11:05:35.573Z,3.10
2018-05-21T11:06:38.901Z,2.53
2018-05-21T11:07:41.419Z,2.83
2018-05-21T11:08:44.721Z,2.70
2018-05-21T11:09:47.246Z,2.50
2018-05-21T11:10:49.817Z,3.07
2018-05-21T11:11:52.361Z,2.90
2018-05-21T11:12:54.913Z,2.60
2018-05-21T11:13:57.440Z,2.50
2018-05-21T11:15:00.730Z,2.87
2018-05-21T11:16:04.011Z,3.85
2018-05-21T11:17:07.356Z,3.17
2018-05-21T11:18:09.891Z,2.50
2018-05-21T11:19:12.430Z,2.77
2018-05-21T11:20:15.704Z,2.93
2018-05-21T11:21:18.999Z,2.63
2018-05-21T11:22:21.600Z,3.00
2018-05-21T11:23:24.167Z,2.67
2018-05-21T11:24:26.686Z,2.50
2018-05-21T11:25:29.979Z,2.63
2018-05-21T11:26:33.303Z,2.77
2018-05-21T11:27:35.825Z,2.70
2018-05-21T11:28:39.113Z,3.00
2018-05-21T11:29:42.398Z,3.00
2018-05-21T11:30:45.685Z,3.00
2018-05-21T11:31:48.303Z,3.83
2018-05-21T11:32:50.780Z,2.80
2018-05-21T11:33:53.301Z,2.70
2018-05-21T11:34:55.817Z,2.40
2018-05-21T11:35:58.336Z,2.80
2018-05-21T11:37:00.900Z,2.60
2018-05-21T11:38:03.449Z,2.60
2018-05-21T11:39:06.731Z,3.20
2018-05-21T11:40:10.048Z,2.90
2018-05-21T11:41:12.568Z,2.50
2018-05-21T11:42:15.899Z,2.90
2018-05-21T11:43:18.443Z,3.37
2018-05-21T11:44:20.964Z,2.70
2018-05-21T11:45:23.521Z,2.50
2018-05-21T11:46:26.063Z,2.90
2018-05-21T11:47:28.635Z,3.00
2018-05-21T11:48:31.158Z,2.80
2018-05-21T11:49:34.440Z,2.33
2018-05-21T11:50:37.016Z,2.97
2018-05-21T11:51:39.521Z,2.80
2018-05-21T11:52:42.165Z,2.53
2018-05-21T11:53:44.630Z,2.90
2018-05-21T11:54:47.148Z,2.43
2018-05-21T11:55:49.682Z,3.30
2018-05-21T11:56:52.220Z,2.50
2018-05-21T11:57:54.781Z,3.10
2018-05-21T11:58:57.299Z,2.70
2018-05-21T11:59:59.834Z,2.93
2018-05-21T12:01:02.352Z,2.13
2018-05-21T12:02:04.900Z,2.83
2018-05-21T12:03:07.459Z,2.93
2018-05-21T12:04:09.992Z,2.60
2018-05-21T12:05:12.516Z,3.17
2018-05-21T12:06:15.081Z,3.30
2018-05-21T12:07:17.615Z,3.00
2018-05-21T12:08:20.183Z,3.63
2018-05-21T12:09:22.711Z,2.73
2018-05-21T12:10:25.240Z,3.13
2018-05-21T12:11:27.764Z,2.80
2018-05-21T12:12:30.306Z,2.23
2018-05-21T12:13:32.943Z,2.80
2018-05-21T12:14:35.433Z,3.10
2018-05-21T12:15:38.401Z,2.23
2018-05-21T12:16:41.728Z,2.27
2018-05-21T12:17:44.249Z,3.10
2018-05-21T12:18:47.532Z,2.70
2018-05-21T12:19:50.818Z,2.67
2018-05-21T12:20:54.106Z,2.30
2018-05-21T12:21:57.419Z,2.83
2018-05-21T12:22:59.943Z,2.70
2018-05-21T12:24:02.472Z,2.80
2018-05-21T12:25:05.031Z,3.20
2018-05-21T12:26:07.560Z,3.60
2018-05-21T12:27:10.862Z,2.50
2018-05-21T12:28:13.387Z,3.03
2018-05-21T12:30:25.539Z,2.87
2018-05-21T12:31:28.060Z,2.60
2018-05-21T12:32:31.347Z,2.60
2018-05-21T12:33:34.639Z,2.30
2018-05-21T12:34:37.925Z,2.50
2018-05-21T12:35:41.278Z,2.60
2018-05-21T12:36:43.816Z,2.80
2018-05-21T12:37:46.375Z,2.70
2018-05-21T12:38:48.900Z,3.10
2018-05-21T12:39:52.183Z,2.77
2018-05-21T12:40:55.537Z,2.13
2018-05-21T12:41:58.052Z,2.40
2018-05-21T12:43:00.606Z,2.80
2018-05-21T12:44:03.895Z,3.07
2018-05-21T12:45:06.426Z,2.70
2018-05-21T12:46:08.979Z,3.00
2018-05-21T12:47:11.506Z,2.73
2018-05-21T12:48:14.053Z,2.63
2018-05-21T12:49:17.348Z,2.43
2018-05-21T12:50:19.874Z,2.40
2018-05-21T12:51:22.428Z,2.60
2018-05-21T12:52:24.940Z,2.40
2018-05-21T12:53:28.224Z,2.90
2018-05-21T12:54:31.581Z,2.37
2018-05-21T12:55:34.101Z,2.67
2018-05-21T12:56:36.651Z,2.43
2018-05-21T12:57:39.186Z,2.67
2018-05-21T12:58:41.707Z,2.50
2018-05-21T12:59:44.267Z,2.50
2018-05-21T13:00:46.783Z,2.30
2018-05-21T13:01:49.302Z,2.30
2018-05-21T13:02:51.815Z,2.60
2018-05-21T13:03:54.390Z,2.40
2018-05-21T13:04:57.707Z,2.97
2018-05-21T13:06:00.221Z,2.83
2018-05-21T13:07:02.735Z,2.20
2018-05-21T13:08:05.268Z,2.70
2018-05-21T13:09:08.600Z,2.87
2018-05-21T13:10:11.116Z,3.20
2018-05-21T13:11:13.640Z,3.20
2018-05-21T13:12:16.163Z,2.30
2018-05-21T13:13:19.487Z,2.50
2018-05-21T13:14:22.054Z,3.20
2018-05-21T13:15:24.679Z,2.50
2018-05-21T13:16:27.108Z,2.67
2018-05-21T13:17:29.632Z,3.00
2018-05-21T13:18:32.192Z,2.43
2018-05-21T13:19:34.721Z,2.90
2018-05-21T13:20:37.240Z,2.50
2018-05-21T13:21:39.807Z,2.30
2018-05-21T13:22:42.336Z,3.30
2018-05-21T13:23:45.615Z,2.77
2018-05-21T13:24:48.129Z,2.40
2018-05-21T13:25:50.648Z,2.70
2018-05-21T13:26:53.963Z,2.90
2018-05-21T13:27:56.478Z,2.60
2018-05-21T13:28:59.009Z,2.37
2018-05-21T13:30:01.545Z,2.70
2018-05-21T13:31:04.106Z,2.70
2018-05-21T13:32:06.631Z,2.83
2018-05-21T13:33:09.162Z,2.43
2018-05-21T13:34:11.676Z,2.73
2018-05-21T13:35:14.231Z,2.70
2018-05-21T13:36:16.746Z,2.70
2018-05-21T13:37:19.266Z,2.30
2018-05-21T13:38:21.827Z,2.67
2018-05-21T13:39:24.358Z,2.60
2018-05-21T13:40:26.878Z,2.30
2018-05-21T13:41:29.456Z,2.40
2018-05-21T13:42:32.775Z,2.50
2018-05-21T13:43:35.297Z,2.47
2018-05-21T13:44:37.816Z,2.70
2018-05-21T13:45:40.332Z,2.60
2018-05-21T13:46:43.673Z,2.50
2018-05-21T13:47:46.185Z,2.97
2018-05-21T13:48:48.701Z,2.67
2018-05-21T13:49:51.236Z,2.50
2018-05-21T13:50:53.760Z,2.60
2018-05-21T13:51:56.320Z,2.37
2018-05-21T13:52:58.874Z,2.50
2018-05-21T13:54:01.398Z,2.50
2018-05-21T13:55:04.684Z,2.70
2018-05-21T13:56:07.972Z,2.50
2018-05-21T13:57:10.488Z,2.47
2018-05-21T13:58:13.037Z,2.30
2018-05-21T13:59:15.553Z,2.60
2018-05-21T14:00:18.875Z,2.87